Time;durP1;ratioP1;P1;durP2;ratioP2;P2;SDS_P1;SDS_P2;PMS_P1;PMS_P2;Temp;Humidity;BMP_temperature;BMP_pressure;BME280_temperature;BME280_humidity;BME280_pressure;Samples;Min_cycle;Max_cycle;Signal;HPM_P1;HPM_P2
2023/02/14 00:00:53;;;;;;;25.98;15.52;;;5.40;99.90;;;;;;2603214;54;20862;31
2023/02/14 00:03:30;;;;;;;22.52;14.95;;;5.40;99.90;;;;;;2603224;54;20073;31
2023/02/14 00:06:08;;;;;;;22.05;13.50;;;5.30;99.90;;;;;;2603389;54;20864;31
2023/02/14 00:08:43;;;;;;;26.15;14.25;;;5.30;99.90;;;;;;2603432;54;20022;31
2023/02/14 00:11:17;;;;;;;25.30;14.88;;;5.40;99.90;;;;;;2621832;46;20913;31
2023/02/14 00:16:40;;;;;;;20.40;13.13;;;5.30;99.90;;;;;;2621967;46;20884;31
2023/02/14 00:19:17;;;;;;;25.10;13.90;;;5.30;99.90;;;;;;2603390;54;20816;31
2023/02/14 00:21:51;;;;;;;18.85;13.05;;;5.30;99.90;;;;;;2603356;54;20038;31
2023/02/14 00:24:26;;;;;;;22.92;13.10;;;5.20;99.90;;;;;;2603228;54;20130;31
2023/02/14 00:27:00;;;;;;;17.60;12.43;;;5.20;99.90;;;;;;2603290;54;20038;31
2023/02/14 00:29:34;;;;;;;22.95;13.35;;;5.20;99.90;;;;;;2603062;54;20889;31
2023/02/14 00:32:09;;;;;;;20.53;13.20;;;5.20;99.90;;;;;;2621509;46;20085;31
2023/02/14 00:34:46;;;;;;;17.40;12.40;;;5.20;99.90;;;;;;2602987;54;20095;31
2023/02/14 00:37:20;;;;;;;18.92;12.77;;;5.20;99.90;;;;;;2603071;54;21156;31
2023/02/14 00:39:54;;;;;;;20.23;13.35;;;5.20;99.90;;;;;;2603040;54;20053;31
2023/02/14 00:42:28;;;;;;;20.77;13.43;;;5.20;99.90;;;;;;2603036;54;20933;31
2023/02/14 00:45:02;;;;;;;22.08;13.82;;;5.20;99.90;;;;;;2603217;54;20022;31
2023/02/14 00:47:36;;;;;;;19.50;13.57;;;5.10;99.90;;;;;;2621808;47;20863;31
2023/02/14 00:50:13;;;;;;;22.05;15.05;;;5.10;99.90;;;;;;2603440;54;20855;31
2023/02/14 00:52:47;;;;;;;19.38;13.35;;;5.10;99.90;;;;;;2603039;54;20872;31
2023/02/14 00:55:23;;;;;;;20.25;13.35;;;5.10;99.90;;;;;;2603875;54;20741;31
2023/02/14 00:57:57;;;;;;;20.38;13.55;;;5.10;99.90;;;;;;2603773;54;21063;31
2023/02/14 01:00:33;;;;;;;22.13;14.43;;;5.10;99.90;;;;;;2603740;54;20022;31
2023/02/14 01:03:07;;;;;;;20.98;12.93;;;5.10;99.90;;;;;;2721275;39;21014;31
2023/02/14 01:05:44;;;;;;;21.00;13.30;;;5.10;99.90;;;;;;2603823;54;20959;31
2023/02/14 01:08:18;;;;;;;20.10;12.80;;;5.10;99.90;;;;;;2603763;54;20023;31
2023/02/14 01:10:52;;;;;;;22.03;13.60;;;5.10;99.90;;;;;;2603845;54;20089;31
2023/02/14 01:13:26;;;;;;;20.80;13.45;;;5.10;99.90;;;;;;2604000;54;20064;31
2023/02/14 01:16:01;;;;;;;19.50;13.05;;;5.10;99.90;;;;;;2621862;46;20029;31
2023/02/14 01:18:35;;;;;;;19.13;12.65;;;5.10;99.90;;;;;;2603822;54;20027;31
2023/02/14 01:21:19;;;;;;;23.40;13.55;;;5.10;99.90;;;;;;2603870;54;20026;31
2023/02/14 01:23:55;;;;;;;20.60;12.93;;;5.10;99.90;;;;;;2773770;31;21739;31
2023/02/14 01:26:29;;;;;;;22.00;13.57;;;5.10;99.90;;;;;;2603659;54;20106;31
2023/02/14 01:29:07;;;;;;;19.13;13.07;;;5.10;99.90;;;;;;2603576;54;20053;31
2023/02/14 01:31:41;;;;;;;21.67;13.10;;;5.10;99.90;;;;;;2603667;54;20077;31
2023/02/14 01:34:15;;;;;;;22.63;13.23;;;5.00;99.90;;;;;;2603856;54;20027;31
2023/02/14 01:36:55;;;;;;;19.95;12.77;;;5.00;99.90;;;;;;2603649;54;20869;31
2023/02/14 01:39:29;;;;;;;22.33;14.33;;;5.10;99.90;;;;;;2603613;54;20970;31
2023/02/14 01:42:03;;;;;;;21.53;14.07;;;5.00;99.90;;;;;;2603744;54;20108;31
2023/02/14 01:44:58;;;;;;;22.20;13.60;;;5.00;99.90;;;;;;2603557;54;20782;31
2023/02/14 01:47:32;;;;;;;24.80;13.95;;;5.00;99.90;;;;;;2622533;46;20029;31
2023/02/14 01:50:09;;;;;;;20.55;12.45;;;5.00;99.90;;;;;;2603652;54;20026;31
2023/02/14 01:52:47;;;;;;;18.75;12.32;;;5.00;99.90;;;;;;2603981;54;20047;31
2023/02/14 01:55:19;;;;;;;24.02;13.98;;;5.00;99.90;;;;;;2621893;46;20926;31
2023/02/14 01:57:55;;;;;;;20.73;13.20;;;5.10;99.90;;;;;;2622174;46;20027;31
2023/02/14 02:03:16;;;;;;;20.38;12.73;;;5.00;99.90;;;;;;2622395;46;20139;31
2023/02/14 02:05:51;;;;;;;21.50;12.95;;;5.00;99.90;;;;;;2621846;46;20810;31
2023/02/14 02:08:29;;;;;;;21.30;13.10;;;4.90;99.90;;;;;;2603629;54;20022;31
2023/02/14 02:11:03;;;;;;;18.05;12.90;;;5.00;99.90;;;;;;2603756;54;20037;31
2023/02/14 02:13:37;;;;;;;18.65;12.35;;;5.00;99.90;;;;;;2622269;46;20057;31
2023/02/14 02:16:23;;;;;;;20.83;13.77;;;5.00;99.90;;;;;;2621948;46;20026;31
2023/02/14 02:19:06;;;;;;;18.50;11.68;;;5.00;99.90;;;;;;2603662;54;20046;31
2023/02/14 02:22:06;;;;;;;18.70;12.82;;;5.00;99.90;;;;;;2603522;54;20098;31
2023/02/14 02:24:48;;;;;;;19.17;12.88;;;5.00;99.90;;;;;;2603524;54;20053;31
2023/02/14 02:27:39;;;;;;;18.80;12.52;;;4.90;99.90;;;;;;2622506;46;20815;31
2023/02/14 02:33:09;;;;;;;18.83;11.70;;;5.00;99.90;;;;;;2603685;54;20067;31
2023/02/14 02:36:12;;;;;;;19.25;12.43;;;5.00;99.90;;;;;;2603705;54;20031;31
2023/02/14 02:41:20;;;;;;;19.73;12.23;;;4.90;99.90;;;;;;2603660;54;20074;31
2023/02/14 02:43:56;;;;;;;18.57;12.17;;;4.90;99.90;;;;;;2603542;54;20031;31
2023/02/14 02:55:04;;;;;;;19.27;12.30;;;4.90;99.90;;;;;;2603700;54;20026;31
2023/02/14 02:57:38;;;;;;;19.15;12.43;;;5.00;99.90;;;;;;2603485;54;20030;31
2023/02/14 03:00:15;;;;;;;19.00;12.35;;;5.00;99.90;;;;;;2621875;46;20557;31
2023/02/14 03:05:37;;;;;;;18.13;13.18;;;4.90;99.90;;;;;;2603382;54;20046;31
2023/02/14 03:08:14;;;;;;;19.13;12.07;;;4.90;99.90;;;;;;2603275;54;20048;31
2023/02/14 03:10:48;;;;;;;17.23;11.82;;;4.90;99.90;;;;;;2701910;39;20701;31
2023/02/14 03:13:40;;;;;;;20.65;14.05;;;4.90;99.90;;;;;;2603282;54;20889;31
2023/02/14 03:16:26;;;;;;;17.45;11.73;;;4.90;99.90;;;;;;2622224;46;20081;31
2023/02/14 03:22:00;;;;;;;19.88;14.18;;;4.90;99.90;;;;;;2622418;46;20052;31
2023/02/14 03:24:42;;;;;;;20.80;12.80;;;4.90;99.90;;;;;;2622225;46;20052;31
2023/02/14 03:27:18;;;;;;;20.00;13.60;;;4.90;99.90;;;;;;2603326;54;20759;31
2023/02/14 03:29:57;;;;;;;20.83;13.63;;;4.90;99.90;;;;;;2603445;54;20027;31
2023/02/14 03:32:36;;;;;;;22.83;13.75;;;4.90;99.90;;;;;;2603250;54;20093;31
2023/02/14 03:35:17;;;;;;;20.63;12.40;;;4.90;99.90;;;;;;2603311;54;21665;31
2023/02/14 03:37:54;;;;;;;19.25;12.63;;;4.90;99.90;;;;;;2603269;54;21099;31
2023/02/14 03:40:33;;;;;;;18.23;12.43;;;4.90;99.90;;;;;;2603585;54;20030;31
2023/02/14 03:43:09;;;;;;;19.25;12.70;;;4.80;99.90;;;;;;2603169;54;20022;31
2023/02/14 03:45:45;;;;;;;19.40;12.90;;;4.80;99.90;;;;;;2603279;54;20033;31
2023/02/14 03:48:19;;;;;;;23.35;13.35;;;4.80;99.90;;;;;;2621808;46;20901;31
2023/02/14 03:50:56;;;;;;;20.77;11.73;;;4.80;99.90;;;;;;2621284;46;19953;31
2023/02/14 03:53:31;;;;;;;17.50;12.07;;;4.80;99.90;;;;;;2603331;54;20238;31
2023/02/14 03:56:14;;;;;;;19.73;13.68;;;4.80;99.90;;;;;;2603552;54;20831;31
2023/02/14 03:58:53;;;;;;;21.25;11.57;;;4.80;99.90;;;;;;2621975;46;20612;31
2023/02/14 04:01:30;;;;;;;19.95;12.75;;;4.80;99.90;;;;;;2621543;46;20031;31
2023/02/14 04:04:04;;;;;;;16.95;12.45;;;4.80;99.90;;;;;;2603112;54;20116;31
2023/02/14 04:06:41;;;;;;;16.77;12.25;;;4.80;99.90;;;;;;2603308;54;20099;31
2023/02/14 04:09:15;;;;;;;17.20;11.50;;;4.80;99.90;;;;;;2720223;39;20605;31
2023/02/14 04:11:52;;;;;;;17.40;11.80;;;4.80;99.90;;;;;;2603465;54;20057;31
2023/02/14 04:14:29;;;;;;;16.60;11.45;;;4.80;99.90;;;;;;2603155;54;20029;31
2023/02/14 04:19:49;;;;;;;18.75;11.55;;;4.80;99.90;;;;;;2603192;54;20052;31
2023/02/14 04:22:23;;;;;;;17.10;12.15;;;4.80;99.90;;;;;;2603282;54;20123;31
2023/02/14 04:24:57;;;;;;;17.80;12.32;;;4.70;99.90;;;;;;2603015;54;20866;31
2023/02/14 04:27:34;;;;;;;19.23;12.03;;;4.70;99.90;;;;;;2603116;54;20035;31
2023/02/14 04:30:11;;;;;;;18.13;12.20;;;4.70;99.90;;;;;;2621266;46;20235;31
2023/02/14 04:32:45;;;;;;;18.40;12.43;;;4.70;99.90;;;;;;2603134;54;20022;31
2023/02/14 04:35:19;;;;;;;18.98;11.40;;;4.70;99.90;;;;;;2603074;54;20081;31
2023/02/14 04:37:53;;;;;;;16.45;11.57;;;4.70;99.90;;;;;;2603166;54;20096;31
2023/02/14 04:40:27;;;;;;;19.20;11.30;;;4.70;99.90;;;;;;2603214;54;20820;31
2023/02/14 04:43:05;;;;;;;15.45;11.85;;;4.80;99.90;;;;;;2603196;54;20029;31
2023/02/14 04:45:39;;;;;;;17.23;10.13;;;4.70;99.90;;;;;;2603153;54;20172;31
2023/02/14 04:48:13;;;;;;;16.85;12.00;;;4.70;99.90;;;;;;2603007;54;20031;31
2023/02/14 04:50:47;;;;;;;16.90;10.80;;;4.70;99.90;;;;;;2621355;47;20124;31
2023/02/14 04:53:20;;;;;;;16.02;11.15;;;4.70;99.90;;;;;;2602955;54;20161;31
2023/02/14 04:55:55;;;;;;;20.55;12.15;;;4.70;99.90;;;;;;2621510;47;20048;31
2023/02/14 04:58:32;;;;;;;18.52;11.35;;;4.70;99.90;;;;;;2621704;47;20919;31
2023/02/14 05:01:06;;;;;;;16.30;11.25;;;4.70;99.90;;;;;;2603004;54;20031;31
2023/02/14 05:03:40;;;;;;;16.85;10.90;;;4.70;99.90;;;;;;2603192;54;20062;31
2023/02/14 05:06:14;;;;;;;17.13;11.85;;;4.60;99.90;;;;;;2603231;54;20023;31
2023/02/14 05:08:48;;;;;;;20.23;12.02;;;4.70;99.90;;;;;;2602904;54;20937;31
2023/02/14 05:11:22;;;;;;;18.38;12.40;;;4.80;99.90;;;;;;2621627;47;20034;31
2023/02/14 05:14:00;;;;;;;18.20;12.27;;;4.70;99.90;;;;;;2603206;54;20030;31
2023/02/14 05:16:34;;;;;;;14.85;10.43;;;4.70;99.90;;;;;;2603194;54;20829;31
2023/02/14 05:19:08;;;;;;;15.80;11.73;;;4.60;99.90;;;;;;2621457;47;20798;31
2023/02/14 05:21:42;;;;;;;18.95;12.13;;;4.70;99.90;;;;;;2603078;54;20023;31
2023/02/14 05:24:16;;;;;;;19.77;12.50;;;4.70;99.90;;;;;;2621391;47;20749;31
2023/02/14 05:26:50;;;;;;;17.80;12.50;;;4.70;99.90;;;;;;2603147;54;20854;31
2023/02/14 05:29:27;;;;;;;18.17;12.73;;;4.80;99.90;;;;;;2621161;47;20117;31
2023/02/14 05:32:01;;;;;;;16.73;12.03;;;4.70;99.90;;;;;;2602893;54;20056;31
2023/02/14 05:34:35;;;;;;;15.60;11.05;;;4.60;99.90;;;;;;2603107;54;20305;31
2023/02/14 05:37:11;;;;;;;16.37;12.17;;;4.60;99.90;;;;;;2603393;54;20027;31
2023/02/14 05:39:45;;;;;;;15.85;12.15;;;4.60;99.90;;;;;;2603898;54;20919;31
2023/02/14 05:42:19;;;;;;;19.75;12.43;;;4.60;99.90;;;;;;2603842;54;20081;31
2023/02/14 05:44:56;;;;;;;17.83;12.27;;;4.60;99.90;;;;;;2603941;54;20961;31
2023/02/14 05:47:30;;;;;;;17.60;11.50;;;4.60;99.90;;;;;;2603902;54;20026;31
2023/02/14 05:50:04;;;;;;;17.80;12.23;;;4.60;99.90;;;;;;2603762;54;20035;31
2023/02/14 05:52:38;;;;;;;19.38;12.15;;;4.60;99.90;;;;;;2603833;54;20033;31
2023/02/14 05:55:12;;;;;;;18.52;12.43;;;4.60;99.90;;;;;;2622280;46;20946;31
2023/02/14 05:57:46;;;;;;;17.80;11.75;;;4.70;99.90;;;;;;2603687;54;20034;31
2023/02/14 06:00:24;;;;;;;18.88;12.32;;;4.60;99.90;;;;;;2603701;54;20035;31
2023/02/14 06:02:59;;;;;;;17.13;12.57;;;4.60;99.90;;;;;;2702269;39;21648;31
2023/02/14 06:05:33;;;;;;;16.73;11.47;;;4.60;99.90;;;;;;2621886;46;20034;31
2023/02/14 06:08:07;;;;;;;18.83;12.32;;;4.60;99.90;;;;;;2603478;54;20056;31
2023/02/14 06:10:41;;;;;;;16.52;11.48;;;4.60;99.90;;;;;;2603791;54;20057;31
2023/02/14 06:13:16;;;;;;;17.95;12.90;;;4.60;99.90;;;;;;2603559;54;20026;31
2023/02/14 06:15:53;;;;;;;19.77;12.25;;;4.60;99.90;;;;;;2621954;46;20034;31
2023/02/14 06:18:28;;;;;;;16.35;11.00;;;4.60;99.90;;;;;;2622485;46;20022;31
2023/02/14 06:21:01;;;;;;;20.90;12.60;;;4.50;99.90;;;;;;2603471;54;20140;31
2023/02/14 06:23:35;;;;;;;17.65;12.25;;;4.60;99.90;;;;;;2603430;54;20874;31
2023/02/14 06:26:09;;;;;;;20.00;12.63;;;4.50;99.90;;;;;;2720742;39;20605;31
2023/02/14 06:28:44;;;;;;;20.90;12.23;;;4.60;99.90;;;;;;2720795;39;20793;31
2023/02/14 06:31:21;;;;;;;21.13;11.40;;;4.70;99.90;;;;;;2603669;54;20077;31
2023/02/14 06:33:55;;;;;;;16.95;11.65;;;4.60;99.90;;;;;;2603568;54;20089;31
2023/02/14 06:36:29;;;;;;;19.10;12.45;;;4.60;99.90;;;;;;2603665;54;20163;31
2023/02/14 06:39:03;;;;;;;17.20;12.35;;;4.60;99.90;;;;;;2603568;54;20752;31
2023/02/14 06:41:37;;;;;;;20.53;11.97;;;4.60;99.90;;;;;;2603478;54;20103;31
2023/02/14 06:44:11;;;;;;;19.98;12.18;;;4.60;99.90;;;;;;2603639;54;20081;31
2023/02/14 06:46:48;;;;;;;20.08;12.75;;;4.60;99.90;;;;;;2603346;54;20881;31
2023/02/14 06:49:22;;;;;;;18.05;11.95;;;4.70;99.90;;;;;;2621375;47;20900;31
2023/02/14 06:51:56;;;;;;;20.52;12.82;;;4.70;99.90;;;;;;2603594;54;20848;31
2023/02/14 06:54:31;;;;;;;20.60;11.77;;;4.70;99.90;;;;;;2603432;54;20100;31
2023/02/14 06:57:05;;;;;;;18.90;12.30;;;4.60;99.90;;;;;;2602750;54;20026;31
2023/02/14 06:59:39;;;;;;;18.08;12.00;;;4.70;99.90;;;;;;2622289;46;20050;31
2023/02/14 07:02:16;;;;;;;18.60;11.93;;;4.70;99.90;;;;;;2603334;54;20100;31
2023/02/14 07:04:49;;;;;;;17.52;10.80;;;4.70;99.90;;;;;;2621630;46;20073;31
2023/02/14 07:07:23;;;;;;;21.35;12.50;;;4.70;99.90;;;;;;2603431;54;20096;31
2023/02/14 07:09:57;;;;;;;19.98;11.95;;;4.70;99.90;;;;;;2603452;54;20081;31
2023/02/14 07:12:31;;;;;;;18.25;11.10;;;4.70;99.90;;;;;;2621913;46;20030;31
2023/02/14 07:15:08;;;;;;;19.45;12.10;;;4.70;99.90;;;;;;2603500;54;20872;31
2023/02/14 07:17:45;;;;;;;13.85;11.07;;;4.70;99.90;;;;;;2603486;54;21754;31
2023/02/14 07:20:19;;;;;;;21.30;10.75;;;4.70;99.90;;;;;;2603374;54;20030;31
2023/02/14 07:22:53;;;;;;;17.10;10.75;;;4.70;99.90;;;;;;2603362;54;20140;31
2023/02/14 07:25:28;;;;;;;14.90;10.50;;;4.70;99.90;;;;;;2603364;54;20790;31
2023/02/14 07:28:05;;;;;;;27.97;11.03;;;4.70;99.90;;;;;;2603213;54;20863;31
2023/02/14 07:30:39;;;;;;;21.50;10.57;;;4.70;99.90;;;;;;2603233;54;21209;31
2023/02/14 07:33:16;;;;;;;18.10;11.27;;;4.70;99.90;;;;;;2603515;54;20069;31
2023/02/14 07:35:50;;;;;;;17.65;9.75;;;4.80;99.90;;;;;;2603228;54;20759;31
2023/02/14 07:38:29;;;;;;;17.67;10.52;;;4.80;99.90;;;;;;2603365;54;20829;31
2023/02/14 07:41:03;;;;;;;12.98;9.48;;;4.80;99.90;;;;;;2603279;54;20894;31
2023/02/14 07:43:38;;;;;;;17.63;9.52;;;4.80;99.90;;;;;;2603254;54;20862;31
2023/02/14 07:46:12;;;;;;;18.02;9.63;;;4.80;99.90;;;;;;2603401;54;20049;31
2023/02/14 07:48:50;;;;;;;12.68;8.88;;;4.80;99.90;;;;;;2621636;46;20022;31
2023/02/14 07:51:25;;;;;;;12.82;9.13;;;4.80;99.90;;;;;;2603263;54;20027;31
2023/02/14 07:53:59;;;;;;;15.63;10.52;;;4.90;99.90;;;;;;2603216;54;21003;31
2023/02/14 07:56:33;;;;;;;23.83;9.98;;;4.90;99.90;;;;;;2603509;54;20048;31
2023/02/14 07:59:07;;;;;;;24.65;10.55;;;4.90;99.90;;;;;;2621714;46;20033;31
2023/02/14 08:01:41;;;;;;;17.70;9.35;;;4.90;99.90;;;;;;2603323;54;20022;31
2023/02/14 08:04:18;;;;;;;18.90;10.25;;;4.90;99.90;;;;;;2603073;54;20108;31
2023/02/14 08:06:52;;;;;;;18.55;10.32;;;4.90;99.90;;;;;;2603337;54;20038;31
2023/02/14 08:09:26;;;;;;;12.75;9.25;;;4.90;99.90;;;;;;2603228;54;20026;31
2023/02/14 08:14:47;;;;;;;19.13;9.85;;;4.90;99.90;;;;;;2603233;54;20027;31
2023/02/14 08:17:24;;;;;;;19.55;10.07;;;5.00;99.90;;;;;;2603299;54;20042;31
2023/02/14 08:20:01;;;;;;;19.05;9.50;;;5.00;99.90;;;;;;2621412;46;21457;31
2023/02/14 08:22:35;;;;;;;19.73;10.45;;;5.00;99.90;;;;;;2621883;46;20799;31
2023/02/14 08:25:10;;;;;;;15.65;9.80;;;5.10;99.90;;;;;;2621811;46;20030;31
2023/02/14 08:27:44;;;;;;;19.10;10.80;;;5.10;99.90;;;;;;2603250;54;20104;31
2023/02/14 08:30:18;;;;;;;16.23;10.40;;;5.10;99.90;;;;;;2603217;54;20033;31
2023/02/14 08:32:53;;;;;;;17.20;11.00;;;5.10;99.90;;;;;;2603254;54;20026;31
2023/02/14 08:35:33;;;;;;;13.77;9.77;;;5.10;99.90;;;;;;2603157;54;20005;31
2023/02/14 08:38:10;;;;;;;16.47;9.57;;;5.20;99.90;;;;;;2603116;54;20026;31
2023/02/14 08:40:43;;;;;;;17.75;10.45;;;5.20;99.90;;;;;;2603110;54;20104;31
2023/02/14 08:43:17;;;;;;;17.58;10.73;;;5.20;99.90;;;;;;2621640;47;21170;31
2023/02/14 08:45:54;;;;;;;22.45;10.32;;;5.20;99.90;;;;;;2701355;39;20556;31
2023/02/14 08:48:28;;;;;;;14.90;9.63;;;5.20;99.90;;;;;;2701585;39;20643;31
2023/02/14 08:51:06;;;;;;;22.05;10.80;;;5.20;99.90;;;;;;2621603;47;20028;31
2023/02/14 08:53:40;;;;;;;14.55;9.85;;;5.30;99.90;;;;;;2603226;54;20030;31
2023/02/14 08:56:15;;;;;;;14.05;9.30;;;5.40;99.90;;;;;;2621299;47;20044;31
2023/02/14 08:58:49;;;;;;;18.30;10.90;;;5.40;99.90;;;;;;2603153;54;20103;31
2023/02/14 09:01:23;;;;;;;12.75;9.70;;;5.40;99.90;;;;;;2602947;54;20947;31
2023/02/14 09:03:58;;;;;;;15.77;9.88;;;5.40;99.90;;;;;;2621255;47;20031;31
2023/02/14 09:06:35;;;;;;;13.48;8.38;;;5.50;99.90;;;;;;2701513;39;20540;31
2023/02/14 09:09:09;;;;;;;12.00;8.50;;;5.50;99.90;;;;;;2602916;54;20561;31
2023/02/14 09:11:43;;;;;;;14.68;8.77;;;5.60;99.90;;;;;;2603189;54;20986;31
2023/02/14 09:14:17;;;;;;;11.90;8.05;;;5.60;99.90;;;;;;2603628;54;20089;31
2023/02/14 09:16:54;;;;;;;11.20;8.45;;;5.60;99.90;;;;;;2603788;54;20104;31
2023/02/14 09:19:28;;;;;;;12.02;8.45;;;5.60;99.90;;;;;;2622067;46;19934;31
2023/02/14 09:22:05;;;;;;;13.70;9.20;;;5.60;99.90;;;;;;2603813;54;20093;31
2023/02/14 09:24:40;;;;;;;14.38;8.38;;;5.60;99.90;;;;;;2603651;54;20879;31
2023/02/14 09:27:13;;;;;;;12.73;9.10;;;5.70;99.90;;;;;;2603797;54;20027;31
2023/02/14 09:29:47;;;;;;;16.27;9.88;;;5.70;99.90;;;;;;2603752;54;20071;31
2023/02/14 09:32:21;;;;;;;12.52;8.25;;;5.70;99.90;;;;;;2603815;54;20027;31
2023/02/14 09:40:31;;;;;;;12.98;7.80;;;5.80;99.90;;;;;;2603752;54;20108;31
2023/02/14 09:43:09;;;;;;;12.25;7.85;;;5.80;99.90;;;;;;2603894;54;20027;31
2023/02/14 09:45:43;;;;;;;10.80;8.10;;;5.80;99.90;;;;;;2603992;54;20085;31
2023/02/14 09:48:21;;;;;;;13.70;7.85;;;5.80;99.90;;;;;;2603724;54;20022;31
2023/02/14 09:50:56;;;;;;;12.25;7.85;;;5.80;99.90;;;;;;2603736;54;20033;31
2023/02/14 09:53:35;;;;;;;10.47;8.00;;;5.90;99.90;;;;;;2622232;46;20048;31
2023/02/14 09:56:12;;;;;;;12.50;7.85;;;5.90;99.90;;;;;;2603606;54;20740;31
2023/02/14 09:58:50;;;;;;;10.20;7.30;;;5.90;99.90;;;;;;2603791;54;20841;31
2023/02/14 10:01:26;;;;;;;12.65;8.35;;;5.90;99.90;;;;;;2603484;54;20873;31
2023/02/14 10:04:06;;;;;;;10.60;7.65;;;6.00;99.90;;;;;;2603519;54;20034;31
2023/02/14 10:06:50;;;;;;;8.40;6.50;;;6.00;99.90;;;;;;2603462;54;20860;31
2023/02/14 10:09:38;;;;;;;10.90;7.25;;;6.00;99.90;;;;;;2603711;54;20038;31
2023/02/14 10:12:16;;;;;;;14.75;8.35;;;6.00;99.90;;;;;;2603498;54;20893;31
2023/02/14 10:14:50;;;;;;;14.27;8.18;;;6.00;99.90;;;;;;2602737;54;20909;31
2023/02/14 10:17:27;;;;;;;9.00;6.60;;;6.10;99.90;;;;;;2603573;54;20892;31
2023/02/14 10:20:02;;;;;;;11.38;6.65;;;6.10;99.90;;;;;;2603491;54;21670;31
2023/02/14 10:22:41;;;;;;;12.68;6.75;;;6.10;99.90;;;;;;2603447;54;20022;31
2023/02/14 10:25:20;;;;;;;10.43;6.80;;;6.10;99.90;;;;;;2603515;54;20892;31
2023/02/14 10:27:54;;;;;;;9.17;6.00;;;6.10;99.90;;;;;;2603405;54;20112;31
2023/02/14 10:30:28;;;;;;;11.27;6.28;;;6.10;99.90;;;;;;2702134;39;21811;31
2023/02/14 10:33:06;;;;;;;11.43;6.28;;;6.20;99.90;;;;;;2603612;54;20022;31
2023/02/14 10:35:42;;;;;;;9.35;6.55;;;6.20;99.90;;;;;;2603585;54;20031;31
2023/02/14 10:38:16;;;;;;;9.90;5.93;;;6.20;99.90;;;;;;2603469;54;21650;31
2023/02/14 10:41:07;;;;;;;10.13;5.70;;;6.20;99.90;;;;;;2603798;54;20029;31
2023/02/14 10:43:44;;;;;;;11.45;6.65;;;6.30;99.90;;;;;;2603487;54;20104;31
2023/02/14 10:46:23;;;;;;;14.57;7.63;;;6.30;99.90;;;;;;2603443;54;20033;31
2023/02/14 10:49:00;;;;;;;7.50;5.90;;;6.30;99.90;;;;;;2622180;46;21371;31
2023/02/14 10:51:36;;;;;;;9.20;5.30;;;6.40;99.90;;;;;;2603606;54;20880;31
2023/02/14 10:54:19;;;;;;;7.15;4.70;;;6.40;99.90;;;;;;2603332;54;20093;31
2023/02/14 10:56:57;;;;;;;10.00;5.55;;;6.40;99.90;;;;;;2603473;54;20027;31
2023/02/14 10:59:34;;;;;;;8.73;6.00;;;6.30;99.90;;;;;;2603375;54;20085;31
2023/02/14 11:02:08;;;;;;;12.63;6.82;;;6.40;99.90;;;;;;2702217;39;20529;31
2023/02/14 11:04:42;;;;;;;12.87;6.47;;;6.40;99.90;;;;;;2603535;54;20033;31
2023/02/14 11:07:16;;;;;;;9.15;6.05;;;6.50;99.90;;;;;;2603414;54;20786;31
2023/02/14 11:09:50;;;;;;;16.45;7.30;;;6.50;99.90;;;;;;2621879;46;20038;31
2023/02/14 11:12:37;;;;;;;11.93;6.22;;;6.50;99.90;;;;;;2621841;46;19936;31
2023/02/14 11:15:26;;;;;;;10.50;5.90;;;6.60;99.90;;;;;;2622257;46;20826;31
2023/02/14 11:18:22;;;;;;;7.45;4.80;;;6.60;99.90;;;;;;2603747;54;20027;31
2023/02/14 11:21:12;;;;;;;9.15;5.70;;;6.60;99.90;;;;;;2603404;54;20638;31
2023/02/14 11:23:47;;;;;;;7.47;5.15;;;6.60;99.90;;;;;;2603461;54;20033;31
2023/02/14 11:26:24;;;;;;;10.70;5.40;;;6.60;99.90;;;;;;2603606;54;20029;31
2023/02/14 11:29:02;;;;;;;12.48;5.03;;;6.60;99.90;;;;;;2603387;54;20894;31
2023/02/14 11:31:37;;;;;;;6.97;5.13;;;6.60;99.90;;;;;;2603348;54;20117;31
2023/02/14 11:34:31;;;;;;;8.60;5.50;;;6.70;99.90;;;;;;2621567;46;20026;31
2023/02/14 11:37:05;;;;;;;14.95;5.50;;;6.70;99.90;;;;;;2621928;46;20050;31
2023/02/14 11:39:39;;;;;;;8.25;3.88;;;6.70;99.90;;;;;;2621921;46;20027;31
2023/02/14 11:42:14;;;;;;;9.77;4.85;;;6.70;99.90;;;;;;2603429;54;19934;31
2023/02/14 11:44:57;;;;;;;10.43;5.03;;;6.70;99.90;;;;;;2603383;54;20034;31
2023/02/14 11:47:32;;;;;;;15.10;4.65;;;6.80;99.90;;;;;;2603261;54;20832;31
2023/02/14 11:50:11;;;;;;;6.10;4.70;;;6.80;99.90;;;;;;2621885;46;20022;31
2023/02/14 11:52:49;;;;;;;7.22;4.10;;;6.80;99.90;;;;;;2603381;54;20028;31
2023/02/14 11:55:26;;;;;;;5.65;3.88;;;6.80;99.90;;;;;;2622045;46;20112;31
2023/02/14 11:58:04;;;;;;;5.53;3.70;;;6.80;99.90;;;;;;2603346;54;20048;31
2023/02/14 12:00:41;;;;;;;9.45;3.75;;;6.80;99.90;;;;;;2603502;54;20032;31
2023/02/14 12:03:17;;;;;;;12.95;4.68;;;6.80;99.90;;;;;;2603208;54;20108;31
2023/02/14 12:05:52;;;;;;;7.30;3.80;;;6.80;99.90;;;;;;2603512;54;20069;31
2023/02/14 12:08:26;;;;;;;6.55;3.75;;;6.80;99.90;;;;;;2603463;54;20034;31
2023/02/14 12:11:03;;;;;;;5.68;3.83;;;6.80;99.90;;;;;;2603437;54;20026;31
2023/02/14 12:13:37;;;;;;;10.02;4.20;;;6.90;99.90;;;;;;2603315;54;20036;31
2023/02/14 12:16:19;;;;;;;8.90;4.30;;;6.90;99.90;;;;;;2603355;54;20851;31
2023/02/14 12:18:54;;;;;;;4.35;3.15;;;6.90;99.90;;;;;;2603427;54;20022;31
2023/02/14 12:21:57;;;;;;;7.07;3.33;;;6.90;99.90;;;;;;2621604;46;20026;31
2023/02/14 12:24:32;;;;;;;8.45;3.80;;;7.00;99.90;;;;;;2621500;46;20026;31
2023/02/14 12:27:12;;;;;;;9.07;3.17;;;7.00;99.90;;;;;;2603232;54;20034;31
2023/02/14 12:29:50;;;;;;;10.52;3.53;;;6.90;99.90;;;;;;2621895;46;20042;31
2023/02/14 12:32:28;;;;;;;7.85;2.97;;;7.00;99.90;;;;;;2603485;54;20845;31
2023/02/14 12:35:05;;;;;;;6.05;3.00;;;7.00;99.90;;;;;;2603267;54;20123;31
2023/02/14 12:37:45;;;;;;;7.20;2.80;;;7.10;99.90;;;;;;2603232;54;20033;31
2023/02/14 12:40:22;;;;;;;6.63;2.90;;;7.10;99.90;;;;;;2603244;54;20875;31
2023/02/14 12:43:13;;;;;;;4.78;3.15;;;7.10;99.90;;;;;;2603329;54;20031;31
2023/02/14 12:48:24;;;;;;;4.15;2.80;;;7.10;99.90;;;;;;2603763;54;20034;31
2023/02/14 12:50:59;;;;;;;6.63;3.22;;;7.10;99.90;;;;;;2604137;54;20033;31
2023/02/14 12:53:57;;;;;;;10.32;3.30;;;7.10;99.90;;;;;;2604046;54;20121;31
2023/02/14 12:56:38;;;;;;;5.22;2.83;;;7.10;99.90;;;;;;2603662;54;20899;31
2023/02/14 12:59:20;;;;;;;7.50;2.95;;;7.10;99.90;;;;;;2604021;54;20041;31
2023/02/14 13:02:33;;;;;;;8.88;3.15;;;7.10;99.90;;;;;;2604156;54;20034;31
2023/02/14 13:05:16;;;;;;;4.82;3.08;;;7.10;99.90;;;;;;2621950;46;20945;31
2023/02/14 13:08:04;;;;;;;5.60;3.65;;;7.10;99.90;;;;;;2604006;54;20089;31
2023/02/14 13:10:46;;;;;;;5.05;3.30;;;7.10;99.90;;;;;;2603908;54;20068;31
2023/02/14 13:15:53;;;;;;;5.68;3.65;;;7.10;99.90;;;;;;2603771;54;20049;31
2023/02/14 13:18:35;;;;;;;9.00;4.20;;;7.10;99.90;;;;;;2603759;54;20069;31
2023/02/14 13:21:15;;;;;;;8.35;3.70;;;7.10;99.90;;;;;;2604160;54;20030;31
2023/02/14 13:23:51;;;;;;;4.60;3.50;;;7.00;99.90;;;;;;2603811;54;20726;31
2023/02/14 13:26:28;;;;;;;12.20;4.43;;;7.00;99.90;;;;;;2603933;54;20005;31
2023/02/14 13:29:05;;;;;;;8.25;3.95;;;7.00;99.90;;;;;;2622328;46;20026;31
2023/02/14 13:31:39;;;;;;;21.52;4.20;;;7.00;99.90;;;;;;2603956;54;20135;31
2023/02/14 13:34:21;;;;;;;10.43;4.15;;;7.00;99.90;;;;;;2621731;46;20089;31
2023/02/14 13:36:58;;;;;;;10.13;3.20;;;7.00;99.90;;;;;;2721249;39;21082;31
2023/02/14 13:39:34;;;;;;;6.90;3.40;;;6.90;99.90;;;;;;2621885;46;20124;31
2023/02/14 13:42:11;;;;;;;5.90;3.58;;;7.00;99.90;;;;;;2622269;46;20033;31
2023/02/14 13:44:47;;;;;;;8.77;4.45;;;7.00;99.90;;;;;;2621824;46;20030;31
2023/02/14 13:47:21;;;;;;;11.55;5.63;;;7.00;99.90;;;;;;2603995;54;19942;31
2023/02/14 13:49:56;;;;;;;11.70;5.05;;;6.90;99.90;;;;;;2603935;54;20152;31
2023/02/14 13:52:42;;;;;;;8.40;4.53;;;6.90;99.90;;;;;;2603994;54;20022;31
2023/02/14 13:55:16;;;;;;;21.27;5.35;;;6.90;99.90;;;;;;2603780;54;20038;31
2023/02/14 13:58:02;;;;;;;10.07;4.90;;;6.90;99.90;;;;;;2621983;46;20022;31
2023/02/14 14:00:41;;;;;;;8.10;4.30;;;6.90;99.90;;;;;;2603739;54;19960;31
2023/02/14 14:03:15;;;;;;;14.50;4.93;;;6.90;99.90;;;;;;2603873;54;20818;31
2023/02/14 14:05:59;;;;;;;9.60;5.25;;;6.90;99.90;;;;;;2621973;46;20085;31
2023/02/14 14:08:50;;;;;;;10.30;4.60;;;6.90;99.90;;;;;;2603813;54;20026;31
2023/02/14 14:11:58;;;;;;;4.90;4.00;;;6.80;99.90;;;;;;2773521;31;20617;31
2023/02/14 14:14:35;;;;;;;;;;;6.80;99.90;;;;;;2604149;54;25037;31
2023/02/14 14:17:22;;;;;;;13.50;5.13;;;6.80;99.90;;;;;;2603920;54;19941;31
2023/02/14 14:19:56;;;;;;;9.73;5.32;;;6.80;99.90;;;;;;2603801;54;20027;31
2023/02/14 14:22:30;;;;;;;11.30;6.40;;;6.70;99.90;;;;;;2603653;54;20175;31
2023/02/14 14:25:12;;;;;;;9.65;6.25;;;6.70;99.90;;;;;;2603757;54;20843;31